Time;durP1;ratioP1;P1;durP2;ratioP2;P2;SDS_P1;SDS_P2;PMS_P1;PMS_P2;Temp;Humidity;BMP_temperature;BMP_pressure;BME280_temperature;BME280_humidity;BME280_pressure;Samples;Min_cycle;Max_cycle;Signal;HPM_P1;HPM_P2
2021/05/13 00:00:54;;;;;;;;;;;;;;;;;;4251397;33;20510;-88
2021/05/13 00:03:33;;;;;;;;;;;;;;;;;;4289641;33;20396;-91
2021/05/13 00:06:07;;;;;;;;;;;;;;;;;;4260204;33;20016;-87
2021/05/13 00:08:56;;;;;;;;;;;;;;;;;;4274498;33;20274;-90
2021/05/13 00:11:34;;;;;;;;;;;;;;;;;;4258265;33;19962;-92
2021/05/13 00:14:29;;;;;;;;;;;;;;;;;;4283594;33;19989;-91
2021/05/13 00:17:19;;;;;;;;;;;;;;;;;;4263131;33;19969;-87
2021/05/13 00:20:02;;;;;;;;;;;;;;;;;;4270139;33;20375;-90
2021/05/13 00:23:04;;;;;;;;;;;;;;;;;;4254259;33;19957;-88
2021/05/13 00:25:41;;;;;;;;;;;;;;;;;;4274906;33;19980;-93
2021/05/13 00:28:37;;;;;;;;;;;;;;;;;;4247578;33;20320;-92
2021/05/13 00:31:24;;;;;;;;;;;;;;;;;;4248364;33;19954;-90
2021/05/13 00:34:07;;;;;;;;;;;;;;;;;;4263501;33;20017;-94
2021/05/13 00:37:08;;;;;;;;;;;;;;;;;;4240223;33;20109;-88
2021/05/13 00:39:36;;;;;;;;;;;;;;;;;;4239044;33;20472;-92
2021/05/13 00:42:20;;;;;;;;;;;;;;;;;;4236681;33;20009;-90
2021/05/13 00:45:07;;;;;;;;;;;;;;;;;;;;;
2021/05/13 00:51:08;;;;;;;;;;;;;;;;;;4197217;33;20021;-91
2021/05/13 00:56:42;;;;;;;;;;;;;;;;;;4244381;33;20385;-87
2021/05/13 01:02:51;;;;;;;;;;;;;;;;;;4229995;33;20393;-89
2021/05/13 01:05:26;;;;;;;;;;;;;;;;;;4249984;33;19965;-89
2021/05/13 01:08:03;;;;;;;;;;;;;;;;;;4235656;33;20041;-90
2021/05/13 01:10:35;;;;;;;;;;;;;;;;;;4259126;33;20008;-91
2021/05/13 01:13:18;;;;;;;;;;;;;;;;;;4280777;33;20499;-92
2021/05/13 01:16:22;;;;;;;;;;;;;;;;;;4257310;33;20032;-91
2021/05/13 01:19:09;;;;;;;;;;;;;;;;;;4276093;33;20012;-90
2021/05/13 01:22:04;;;;;;;;;;;;;;;;;;4258091;33;20306;-90
2021/05/13 01:24:35;;;;;;;;;;;;;;;;;;4280447;33;20015;-92
2021/05/13 01:27:45;;;;;;;;;;;;;;;;;;4255418;33;20330;-92
2021/05/13 01:30:16;;;;;;;;;;;;;;;;;;4273571;33;19977;-89
2021/05/13 01:33:11;;;;;;;;;;;;;;;;;;4262184;33;20300;-90
2021/05/13 01:35:42;;;;;;;;;;;;;;;;;;4285588;33;20372;-88
2021/05/13 01:38:18;;;;;;;;;;;;;;;;;;4285482;33;20024;-92
2021/05/13 01:40:49;;;;;;;;;;;;;;;;;;4271694;33;19957;-91
2021/05/13 01:43:26;;;;;;;;;;;;;;;;;;4272657;33;20006;-90
2021/05/13 01:46:07;;;;;;;;;;;;;;;;;;4282768;33;20017;-89
2021/05/13 01:48:45;;;;;;;;;;;;;;;;;;;;;
2021/05/13 01:51:20;;;;;;;;;;;;;;;;;;4259360;33;19962;-91
2021/05/13 01:54:01;;;;;;;;;;;;;;;;;;4259231;33;19964;-88
2021/05/13 01:56:32;;;;;;;;;;;;;;;;;;4271441;33;20430;-88
2021/05/13 01:59:01;;;;;;;;;;;;;;;;;;4284980;33;19969;-89
2021/05/13 02:01:34;;;;;;;;;;;;;;;;;;4286780;33;20042;-91
2021/05/13 02:04:13;;;;;;;;;;;;;;;;;;4282025;33;19980;-87
2021/05/13 02:06:50;;;;;;;;;;;;;;;;;;4273957;33;19957;-89
2021/05/13 02:09:19;;;;;;;;;;;;;;;;;;4277068;33;20081;-85
2021/05/13 02:11:49;;;;;;;;;;;;;;;;;;4285795;33;20038;-89
2021/05/13 02:14:22;;;;;;;;;;;;;;;;;;4261330;33;20737;-86
2021/05/13 02:16:56;;;;;;;;;;;;;;;;;;4251232;33;19965;-88
2021/05/13 02:19:38;;;;;;;;;;;;;;;;;;4276548;33;19993;-89
2021/05/13 02:22:09;;;;;;;;;;;;;;;;;;4265950;33;20349;-86
2021/05/13 02:25:08;;;;;;;;;;;;;;;;;;4271668;33;19997;-88
2021/05/13 02:27:47;;;;;;;;;;;;;;;;;;4286572;33;20328;-91
2021/05/13 02:30:29;;;;;;;;;;;;;;;;;;4260031;33;20292;-91
2021/05/13 02:33:09;;;;;;;;;;;;;;;;;;4249005;33;19965;-89
2021/05/13 02:35:58;;;;;;;;;;;;;;;;;;4260684;33;20012;-89
2021/05/13 02:38:42;;;;;;;;;;;;;;;;;;4276592;33;19969;-90
2021/05/13 02:41:21;;;;;;;;;;;;;;;;;;4274988;33;20029;-89
2021/05/13 02:44:00;;;;;;;;;;;;;;;;;;4258044;33;20377;-87
2021/05/13 02:46:30;;;;;;;;;;;;;;;;;;4276699;33;20000;-88
2021/05/13 02:49:09;;;;;;;;;;;;;;;;;;4272239;33;20001;-92
2021/05/13 02:52:06;;;;;;;;;;;;;;;;;;4270430;33;19971;-90
2021/05/13 02:54:44;;;;;;;;;;;;;;;;;;4287602;33;19964;-90
2021/05/13 02:57:22;;;;;;;;;;;;;;;;;;4279706;33;20407;-87
2021/05/13 03:02:50;;;;;;;;;;;;;;;;;;4266619;33;20033;-92
2021/05/13 03:05:40;;;;;;;;;;;;;;;;;;4264904;33;20169;-90
2021/05/13 03:08:29;;;;;;;;;;;;;;;;;;4268596;33;20380;-87
2021/05/13 03:10:59;;;;;;;;;;;;;;;;;;4303629;28;20844;-93
2021/05/13 03:13:29;;;;;;;;;;;;;;;;;;4287423;33;20338;-94
2021/05/13 03:15:59;;;;;;;;;;;;;;;;;;4290128;33;20008;-93
2021/05/13 03:18:38;;;;;;;;;;;;;;;;;;4288010;33;19949;-93
2021/05/13 03:24:07;;;;;;;;;;;;;;;;;;4301207;33;19998;-94
2021/05/13 03:29:06;;;;;;;;;;;;;;;;;;4285511;33;19961;-92
2021/05/13 03:31:39;;;;;;;;;;;;;;;;;;4284315;33;19960;-94
2021/05/13 03:34:10;;;;;;;;;;;;;;;;;;4292816;33;20389;-95
2021/05/13 03:36:44;;;;;;;;;;;;;;;;;;4289668;33;19960;-93
2021/05/13 03:39:15;;;;;;;;;;;;;;;;;;4269269;33;19996;-94
2021/05/13 03:41:46;;;;;;;;;;;;;;;;;;4275953;33;19968;-95
2021/05/13 03:44:28;;;;;;;;;;;;;;;;;;4274477;33;19984;-95
2021/05/13 03:47:05;;;;;;;;;;;;;;;;;;4297932;33;19960;-93
2021/05/13 03:49:45;;;;;;;;;;;;;;;;;;4281366;33;19996;-95
2021/05/13 03:52:18;;;;;;;;;;;;;;;;;;4291808;33;20531;-94
2021/05/13 03:55:10;;;;;;;;;;;;;;;;;;4277470;33;20015;-94
2021/05/13 03:57:40;;;;;;;;;;;;;;;;;;4278231;33;19957;-94
2021/05/13 04:00:14;;;;;;;;;;;;;;;;;;4273958;33;19997;-94
2021/05/13 04:02:48;;;;;;;;;;;;;;;;;;4277627;33;19986;-96
2021/05/13 04:05:19;;;;;;;;;;;;;;;;;;4278170;33;19973;-94
2021/05/13 04:07:52;;;;;;;;;;;;;;;;;;4270609;33;19965;-95
2021/05/13 04:10:24;;;;;;;;;;;;;;;;;;4282344;33;19934;-95
2021/05/13 04:12:57;;;;;;;;;;;;;;;;;;4290039;33;19984;-95
2021/05/13 04:15:30;;;;;;;;;;;;;;;;;;4293969;33;20333;-95
2021/05/13 04:18:02;;;;;;;;;;;;;;;;;;4302656;33;19981;-94
2021/05/13 04:20:35;;;;;;;;;;;;;;;;;;4279995;33;19952;-95
2021/05/13 04:23:07;;;;;;;;;;;;;;;;;;4300709;33;19973;-93
2021/05/13 04:25:38;;;;;;;;;;;;;;;;;;4287348;33;19998;-94
2021/05/13 04:28:13;;;;;;;;;;;;;;;;;;4287699;33;20408;-94
2021/05/13 04:30:50;;;;;;;;;;;;;;;;;;4266946;33;19989;-94
2021/05/13 04:33:21;;;;;;;;;;;;;;;;;;4292362;33;20019;-93
2021/05/13 04:35:50;;;;;;;;;;;;;;;;;;4276771;33;20342;-93
2021/05/13 04:38:33;;;;;;;;;;;;;;;;;;4276351;33;19996;-95
2021/05/13 04:41:06;;;;;;;;;;;;;;;;;;4287977;33;20015;-94
2021/05/13 04:43:35;;;;;;;;;;;;;;;;;;4302115;33;19961;-92
2021/05/13 04:46:09;;;;;;;;;;;;;;;;;;4278110;33;20020;-94
2021/05/13 04:51:18;;;;;;;;;;;;;;;;;;4289990;33;19990;-94
2021/05/13 04:53:47;;;;;;;;;;;;;;;;;;4277175;33;20039;-94
2021/05/13 04:56:20;;;;;;;;;;;;;;;;;;4292369;33;19972;-94
2021/05/13 04:58:54;;;;;;;;;;;;;;;;;;4304496;33;19964;-93
2021/05/13 05:01:23;;;;;;;;;;;;;;;;;;4284323;33;19961;-92
2021/05/13 05:03:57;;;;;;;;;;;;;;;;;;4287279;33;19980;-92
2021/05/13 05:06:32;;;;;;;;;;;;;;;;;;4276355;33;19972;-94
2021/05/13 05:09:04;;;;;;;;;;;;;;;;;;4287833;33;21420;-94
2021/05/13 05:11:35;;;;;;;;;;;;;;;;;;4281350;33;19965;-94
2021/05/13 05:14:18;;;;;;;;;;;;;;;;;;4298919;33;19960;-94
2021/05/13 05:16:57;;;;;;;;;;;;;;;;;;4286246;33;20294;-92
2021/05/13 05:19:26;;;;;;;;;;;;;;;;;;4287122;33;20380;-94
2021/05/13 05:21:54;;;;;;;;;;;;;;;;;;4279226;33;19984;-93
2021/05/13 05:24:25;;;;;;;;;;;;;;;;;;4290705;33;20313;-94
2021/05/13 05:26:54;;;;;;;;;;;;;;;;;;4285303;33;19953;-94
2021/05/13 05:29:30;;;;;;;;;;;;;;;;;;4287395;33;19964;-93
2021/05/13 05:32:22;;;;;;;;;;;;;;;;;;4281120;33;20019;-92
2021/05/13 05:34:50;;;;;;;;;;;;;;;;;;4280085;33;19992;-94
2021/05/13 05:37:21;;;;;;;;;;;;;;;;;;4279065;33;19988;-95
2021/05/13 05:39:50;;;;;;;;;;;;;;;;;;4283993;33;19952;-96
2021/05/13 05:42:28;;;;;;;;;;;;;;;;;;4283708;33;19956;-95
2021/05/13 05:45:01;;;;;;;;;;;;;;;;;;4291916;33;20035;-96
2021/05/13 05:47:38;;;;;;;;;;;;;;;;;;4292349;33;19976;-96
2021/05/13 05:50:09;;;;;;;;;;;;;;;;;;4277238;33;19960;-96
2021/05/13 05:52:38;;;;;;;;;;;;;;;;;;4278793;33;19953;-96
2021/05/13 05:55:15;;;;;;;;;;;;;;;;;;4288547;33;20003;-95
2021/05/13 05:57:48;;;;;;;;;;;;;;;;;;4287715;33;19950;-96
2021/05/13 06:00:27;;;;;;;;;;;;;;;;;;4307442;33;19960;-96
2021/05/13 06:03:11;;;;;;;;;;;;;;;;;;4281364;33;20020;-96
2021/05/13 06:05:40;;;;;;;;;;;;;;;;;;4279509;33;22513;-95
2021/05/13 06:08:11;;;;;;;;;;;;;;;;;;4285475;33;20005;-96
2021/05/13 06:10:42;;;;;;;;;;;;;;;;;;4291385;33;19961;-96
2021/05/13 06:13:26;;;;;;;;;;;;;;;;;;4285802;33;19949;-96
2021/05/13 06:15:57;;;;;;;;;;;;;;;;;;4289704;33;19992;-95
2021/05/13 06:18:28;;;;;;;;;;;;;;;;;;4294618;33;19966;-96
2021/05/13 06:21:02;;;;;;;;;;;;;;;;;;4278541;33;20003;-95
2021/05/13 06:23:36;;;;;;;;;;;;;;;;;;4284015;33;19967;-95
2021/05/13 06:26:11;;;;;;;;;;;;;;;;;;4293315;33;19960;-95
2021/05/13 06:28:47;;;;;;;;;;;;;;;;;;4297367;33;20004;-95
2021/05/13 06:31:17;;;;;;;;;;;;;;;;;;4286667;33;19992;-96
2021/05/13 06:33:55;;;;;;;;;;;;;;;;;;4287935;33;19974;-96
2021/05/13 06:36:30;;;;;;;;;;;;;;;;;;4282476;33;19964;-94
2021/05/13 06:39:18;;;;;;;;;;;;;;;;;;4291694;33;20321;-94
2021/05/13 06:41:48;;;;;;;;;;;;;;;;;;4294063;33;19952;-95
2021/05/13 06:44:17;;;;;;;;;;;;;;;;;;4288236;33;20013;-95
2021/05/13 06:46:57;;;;;;;;;;;;;;;;;;4284280;33;20370;-95
2021/05/13 06:49:29;;;;;;;;;;;;;;;;;;4288549;33;20277;-94
2021/05/13 06:52:07;;;;;;;;;;;;;;;;;;4286772;33;19994;-94
2021/05/13 06:54:47;;;;;;;;;;;;;;;;;;4294729;33;19972;-96
2021/05/13 06:57:20;;;;;;;;;;;;;;;;;;4284830;33;19944;-94
2021/05/13 06:59:55;;;;;;;;;;;;;;;;;;4285905;33;19961;-93
2021/05/13 07:02:28;;;;;;;;;;;;;;;;;;4286301;33;20003;-96
2021/05/13 07:04:57;;;;;;;;;;;;;;;;;;4281229;33;19967;-94
2021/05/13 07:07:30;;;;;;;;;;;;;;;;;;4269097;33;19958;-94
2021/05/13 07:10:06;;;;;;;;;;;;;;;;;;4273468;33;19972;-95
2021/05/13 07:12:44;;;;;;;;;;;;;;;;;;4284931;33;19950;-95
2021/05/13 07:15:31;;;;;;;;;;;;;;;;;;4288554;33;19968;-93
2021/05/13 07:18:07;;;;;;;;;;;;;;;;;;4283967;33;19964;-94
2021/05/13 07:20:43;;;;;;;;;;;;;;;;;;4284599;33;20008;-94
2021/05/13 07:23:24;;;;;;;;;;;;;;;;;;4278758;33;19990;-93
2021/05/13 07:25:55;;;;;;;;;;;;;;;;;;4300894;33;20015;-93
2021/05/13 07:28:27;;;;;;;;;;;;;;;;;;4297601;33;19968;-96
2021/05/13 07:31:03;;;;;;;;;;;;;;;;;;4279201;33;20028;-95
2021/05/13 07:33:37;;;;;;;;;;;;;;;;;;4288818;33;19959;-93
2021/05/13 07:36:13;;;;;;;;;;;;;;;;;;4268396;33;19965;-94
2021/05/13 07:38:47;;;;;;;;;;;;;;;;;;4280666;33;20008;-95
2021/05/13 07:41:17;;;;;;;;;;;;;;;;;;4282988;33;19953;-94
2021/05/13 07:43:50;;;;;;;;;;;;;;;;;;4302348;33;20362;-94
2021/05/13 07:46:33;;;;;;;;;;;;;;;;;;4288319;33;19975;-94
2021/05/13 07:49:25;;;;;;;;;;;;;;;;;;4287410;33;19953;-94
2021/05/13 07:52:00;;;;;;;;;;;;;;;;;;4285112;33;19957;-94
2021/05/13 07:54:31;;;;;;;;;;;;;;;;;;4286634;33;20391;-96
2021/05/13 07:57:10;;;;;;;;;;;;;;;;;;4291675;33;19959;-94
2021/05/13 07:59:41;;;;;;;;;;;;;;;;;;4286869;33;20026;-94
2021/05/13 08:02:14;;;;;;;;;;;;;;;;;;4279987;33;19957;-96
2021/05/13 08:04:48;;;;;;;;;;;;;;;;;;4282341;33;19957;-94
2021/05/13 08:07:25;;;;;;;;;;;;;;;;;;4295987;33;19957;-96
2021/05/13 08:10:01;;;;;;;;;;;;;;;;;;4284929;33;20555;-96
2021/05/13 08:12:29;;;;;;;;;;;;;;;;;;4288892;33;19957;-94
2021/05/13 08:15:18;;;;;;;;;;;;;;;;;;4283234;33;19960;-95
2021/05/13 08:17:46;;;;;;;;;;;;;;;;;;4287287;33;20262;-95
2021/05/13 08:20:20;;;;;;;;;;;;;;;;;;4276509;33;19949;-95
2021/05/13 08:22:52;;;;;;;;;;;;;;;;;;4289513;33;19948;-96
2021/05/13 08:26:00;;;;;;;;;;;;;;;;;;4283731;33;19988;-94
2021/05/13 08:28:33;;;;;;;;;;;;;;;;;;4279335;33;19995;-95
2021/05/13 08:31:07;;;;;;;;;;;;;;;;;;4279511;33;20007;-96
2021/05/13 08:33:35;;;;;;;;;;;;;;;;;;4287737;33;19980;-95
2021/05/13 08:36:09;;;;;;;;;;;;;;;;;;4278195;33;20003;-95
2021/05/13 08:38:42;;;;;;;;;;;;;;;;;;4287461;33;19953;-94
2021/05/13 08:41:17;;;;;;;;;;;;;;;;;;4292724;33;19957;-95
2021/05/13 08:43:54;;;;;;;;;;;;;;;;;;4290604;33;19967;-95
2021/05/13 08:46:29;;;;;;;;;;;;;;;;;;4296931;33;19996;-94
2021/05/13 08:49:00;;;;;;;;;;;;;;;;;;4292824;33;19941;-96
2021/05/13 08:51:39;;;;;;;;;;;;;;;;;;4278960;33;19997;-96
2021/05/13 08:54:23;;;;;;;;;;;;;;;;;;4275587;33;19967;-96
2021/05/13 08:57:18;;;;;;;;;;;;;;;;;;4294507;33;19984;-96
2021/05/13 08:59:50;;;;;;;;;;;;;;;;;;4283256;33;19961;-96
2021/05/13 09:02:21;;;;;;;;;;;;;;;;;;4284200;33;19996;-94
2021/05/13 09:04:51;;;;;;;;;;;;;;;;;;4284767;33;20720;-94
2021/05/13 09:07:24;;;;;;;;;;;;;;;;;;4284445;33;19976;-95
2021/05/13 09:09:55;;;;;;;;;;;;;;;;;;4274105;33;19992;-96
2021/05/13 09:12:36;;;;;;;;;;;;;;;;;;4285224;33;20390;-96
2021/05/13 09:15:06;;;;;;;;;;;;;;;;;;4274942;33;19948;-96
2021/05/13 09:17:37;;;;;;;;;;;;;;;;;;4300177;33;20004;-94
2021/05/13 09:20:09;;;;;;;;;;;;;;;;;;4285203;33;20059;-95
2021/05/13 09:22:38;;;;;;;;;;;;;;;;;;4277899;33;19999;-95
2021/05/13 09:25:11;;;;;;;;;;;;;;;;;;4293472;33;19957;-96
2021/05/13 09:27:46;;;;;;;;;;;;;;;;;;4290111;33;20012;-95
2021/05/13 09:30:16;;;;;;;;;;;;;;;;;;4278088;33;19996;-96
2021/05/13 09:32:48;;;;;;;;;;;;;;;;;;4289051;33;19961;-94
2021/05/13 09:35:22;;;;;;;;;;;;;;;;;;4287495;33;20326;-95
2021/05/13 09:37:51;;;;;;;;;;;;;;;;;;4293912;33;20000;-94
2021/05/13 09:40:22;;;;;;;;;;;;;;;;;;4285718;33;20332;-96
2021/05/13 09:42:51;;;;;;;;;;;;;;;;;;4291202;33;19953;-96
2021/05/13 09:45:26;;;;;;;;;;;;;;;;;;4265987;33;20023;-96
2021/05/13 09:47:55;;;;;;;;;;;;;;;;;;4280289;33;19963;-96
2021/05/13 09:50:38;;;;;;;;;;;;;;;;;;4283783;33;19963;-95
2021/05/13 09:53:30;;;;;;;;;;;;;;;;;;4286512;33;19961;-96
2021/05/13 09:56:09;;;;;;;;;;;;;;;;;;4288650;33;20000;-96
2021/05/13 09:58:43;;;;;;;;;;;;;;;;;;4279746;33;19949;-96
2021/05/13 10:01:18;;;;;;;;;;;;;;;;;;4285379;33;19997;-96
2021/05/13 10:03:55;;;;;;;;;;;;;;;;;;4276592;33;19981;-96
2021/05/13 10:06:23;;;;;;;;;;;;;;;;;;4281267;33;20019;-96
2021/05/13 10:09:02;;;;;;;;;;;;;;;;;;4291418;33;20635;-96
2021/05/13 10:11:33;;;;;;;;;;;;;;;;;;4295818;33;19997;-96
2021/05/13 10:14:07;;;;;;;;;;;;;;;;;;4295930;33;19993;-96
2021/05/13 10:16:35;;;;;;;;;;;;;;;;;;4287420;33;20456;-94
2021/05/13 10:19:08;;;;;;;;;;;;;;;;;;4302306;33;19989;-96
2021/05/13 10:22:08;;;;;;;;;;;;;;;;;;4288710;33;19967;-96
2021/05/13 10:24:52;;;;;;;;;;;;;;;;;;4290926;33;20490;-96
2021/05/13 10:27:22;;;;;;;;;;;;;;;;;;4273894;33;20014;-96
2021/05/13 10:29:53;;;;;;;;;;;;;;;;;;4287512;33;19961;-96
2021/05/13 10:32:27;;;;;;;;;;;;;;;;;;4273804;33;19993;-96
2021/05/13 10:34:59;;;;;;;;;;;;;;;;;;4282948;33;19961;-96
2021/05/13 10:37:30;;;;;;;;;;;;;;;;;;4273150;33;20374;-96
2021/05/13 10:40:02;;;;;;;;;;;;;;;;;;4273930;33;20376;-96
2021/05/13 10:42:33;;;;;;;;;;;;;;;;;;4251906;33;19954;-96
2021/05/13 10:45:05;;;;;;;;;;;;;;;;;;4295555;33;19965;-96
2021/05/13 10:47:33;;;;;;;;;;;;;;;;;;4282161;33;19950;-96
2021/05/13 10:50:07;;;;;;;;;;;;;;;;;;4272886;33;19977;-96
2021/05/13 10:52:41;;;;;;;;;;;;;;;;;;4290067;33;19953;-96
2021/05/13 10:55:18;;;;;;;;;;;;;;;;;;4273042;33;20021;-96
2021/05/13 10:57:57;;;;;;;;;;;;;;;;;;4282386;33;19962;-95
2021/05/13 11:00:29;;;;;;;;;;;;;;;;;;4285062;33;19976;-96
2021/05/13 11:03:07;;;;;;;;;;;;;;;;;;4285966;33;20008;-96
2021/05/13 11:05:41;;;;;;;;;;;;;;;;;;4273433;33;19961;-96
2021/05/13 11:08:12;;;;;;;;;;;;;;;;;;4292502;33;20052;-96
2021/05/13 11:10:40;;;;;;;;;;;;;;;;;;4281557;33;19962;-96
2021/05/13 11:13:12;;;;;;;;;;;;;;;;;;4285355;33;19983;-96
2021/05/13 11:15:55;;;;;;;;;;;;;;;;;;4280514;33;19957;-96
2021/05/13 11:18:27;;;;;;;;;;;;;;;;;;4284041;33;19957;-96
2021/05/13 11:20:58;;;;;;;;;;;;;;;;;;4271910;33;19993;-96
2021/05/13 11:23:27;;;;;;;;;;;;;;;;;;4271491;33;19953;-96
2021/05/13 11:26:15;;;;;;;;;;;;;;;;;;4293046;33;20030;-95
2021/05/13 11:28:51;;;;;;;;;;;;;;;;;;4296341;33;19957;-96
2021/05/13 11:31:23;;;;;;;;;;;;;;;;;;4286374;33;19984;-96
2021/05/13 11:33:56;;;;;;;;;;;;;;;;;;4274154;33;20000;-96
2021/05/13 11:36:30;;;;;;;;;;;;;;;;;;4286192;33;19948;-96
2021/05/13 11:39:07;;;;;;;;;;;;;;;;;;4286696;33;20293;-96
2021/05/13 11:41:36;;;;;;;;;;;;;;;;;;4270988;33;19962;-96
2021/05/13 11:44:06;;;;;;;;;;;;;;;;;;4270979;33;19976;-96
2021/05/13 11:46:38;;;;;;;;;;;;;;;;;;4295249;33;20680;-96
2021/05/13 11:49:09;;;;;;;;;;;;;;;;;;4289098;33;20004;-96
2021/05/13 11:51:42;;;;;;;;;;;;;;;;;;4271639;33;19972;-96
2021/05/13 11:54:33;;;;;;;;;;;;;;;;;;4277853;33;19969;-96
2021/05/13 11:57:03;;;;;;;;;;;;;;;;;;4283324;33;20349;-96
2021/05/13 11:59:34;;;;;;;;;;;;;;;;;;4288430;33;19960;-96
2021/05/13 12:02:16;;;;;;;;;;;;;;;;;;4284251;33;20010;-96
2021/05/13 12:04:52;;;;;;;;;;;;;;;;;;4301990;33;20004;-96
2021/05/13 12:07:21;;;;;;;;;;;;;;;;;;4276764;33;19969;-96
2021/05/13 12:09:53;;;;;;;;;;;;;;;;;;4275100;33;20019;-96
2021/05/13 12:12:22;;;;;;;;;;;;;;;;;;4277778;33;19944;-96
2021/05/13 12:14:52;;;;;;;;;;;;;;;;;;4295222;33;19986;-96
2021/05/13 12:17:24;;;;;;;;;;;;;;;;;;4275583;33;19980;-96
2021/05/13 12:19:58;;;;;;;;;;;;;;;;;;4286634;33;20297;-96
2021/05/13 12:22:31;;;;;;;;;;;;;;;;;;4295836;33;19949;-96
2021/05/13 12:25:02;;;;;;;;;;;;;;;;;;4296007;33;19987;-96
2021/05/13 12:27:36;;;;;;;;;;;;;;;;;;4276610;33;20743;-96
2021/05/13 12:30:14;;;;;;;;;;;;;;;;;;4291559;33;20009;-96
2021/05/13 12:32:45;;;;;;;;;;;;;;;;;;4278917;33;20299;-96
2021/05/13 12:35:16;;;;;;;;;;;;;;;;;;4280910;33;19961;-96
2021/05/13 12:37:45;;;;;;;;;;;;;;;;;;4287896;33;20282;-96
2021/05/13 12:40:14;;;;;;;;;;;;;;;;;;4290548;33;20385;-96
2021/05/13 12:42:43;;;;;;;;;;;;;;;;;;4278381;33;19963;-96
2021/05/13 12:45:25;;;;;;;;;;;;;;;;;;4290261;33;19956;-96
2021/05/13 12:48:01;;;;;;;;;;;;;;;;;;4305829;33;20000;-95
2021/05/13 12:50:33;;;;;;;;;;;;;;;;;;4303069;33;19984;-94
2021/05/13 12:53:05;;;;;;;;;;;;;;;;;;4288003;33;19957;-94
2021/05/13 12:55:35;;;;;;;;;;;;;;;;;;4295846;33;19971;-95
2021/05/13 12:58:04;;;;;;;;;;;;;;;;;;4296229;33;20135;-95
2021/05/13 13:00:40;;;;;;;;;;;;;;;;;;4283360;33;19956;-96
2021/05/13 13:03:15;;;;;;;;;;;;;;;;;;4293211;33;19961;-96
2021/05/13 13:05:44;;;;;;;;;;;;;;;;;;4277253;33;19957;-95
2021/05/13 13:08:13;;;;;;;;;;;;;;;;;;4290270;33;19957;-96
2021/05/13 13:18:00;;;;;;;;;;;;;;;;;;4293544;33;19957;-96
2021/05/13 13:24:13;;;;;;;;;;;;;;;;;;4294217;33;20009;-96
2021/05/13 13:27:04;;;;;;;;;;;;;;;;;;4271351;33;19963;-94
2021/05/13 13:29:37;;;;;;;;;;;;;;;;;;4274567;33;20005;-95
2021/05/13 13:32:08;;;;;;;;;;;;;;;;;;4272797;33;20047;-96
2021/05/13 13:34:39;;;;;;;;;;;;;;;;;;4300353;33;20052;-96
2021/05/13 13:37:11;;;;;;;;;;;;;;;;;;4293173;33;19972;-96
2021/05/13 13:39:41;;;;;;;;;;;;;;;;;;4279813;33;19949;-96
2021/05/13 13:42:14;;;;;;;;;;;;;;;;;;4292553;33;19945;-96
2021/05/13 13:44:52;;;;;;;;;;;;;;;;;;4290618;33;19953;-96
2021/05/13 13:47:24;;;;;;;;;;;;;;;;;;4290376;33;19949;-96
2021/05/13 13:50:02;;;;;;;;;;;;;;;;;;4283638;33;19957;-96
2021/05/13 13:52:34;;;;;;;;;;;;;;;;;;4291539;33;19949;-96
2021/05/13 13:55:08;;;;;;;;;;;;;;;;;;4288164;33;20034;-96
2021/05/13 13:57:52;;;;;;;;;;;;;;;;;;4283937;33;19973;-96
2021/05/13 14:00:25;;;;;;;;;;;;;;;;;;4280763;33;19952;-96
2021/05/13 14:02:58;;;;;;;;;;;;;;;;;;4287415;33;19949;-96
2021/05/13 14:05:26;;;;;;;;;;;;;;;;;;4297644;33;19952;-96
2021/05/13 14:07:59;;;;;;;;;;;;;;;;;;4277038;33;20687;-95
2021/05/13 14:10:31;;;;;;;;;;;;;;;;;;4274850;33;19972;-96
2021/05/13 14:13:10;;;;;;;;;;;;;;;;;;4285476;33;19996;-96
2021/05/13 14:15:45;;;;;;;;;;;;;;;;;;4279399;33;19964;-95
2021/05/13 14:18:17;;;;;;;;;;;;;;;;;;4305580;33;19989;-95
2021/05/13 14:21:10;;;;;;;;;;;;;;;;;;4284210;33;19969;-96
2021/05/13 14:23:45;;;;;;;;;;;;;;;;;;4287982;33;20366;-96
2021/05/13 14:26:19;;;;;;;;;;;;;;;;;;4286677;33;19953;-96
2021/05/13 14:29:06;;;;;;;;;;;;;;;;;;4297577;33;20668;-96
2021/05/13 14:32:09;;;;;;;;;;;;;;;;;;4278693;33;20020;-96
2021/05/13 14:35:01;;;;;;;;;;;;;;;;;;4289279;33;19949;-96
2021/05/13 14:37:31;;;;;;;;;;;;;;;;;;4282082;33;19968;-96
2021/05/13 14:40:06;;;;;;;;;;;;;;;;;;4292508;33;20571;-96
2021/05/13 14:42:35;;;;;;;;;;;;;;;;;;4273451;33;19958;-96
2021/05/13 14:45:04;;;;;;;;;;;;;;;;;;4280952;33;19946;-95
2021/05/13 14:47:38;;;;;;;;;;;;;;;;;;4288781;33;19984;-96
2021/05/13 14:50:07;;;;;;;;;;;;;;;;;;4275262;33;19949;-96
2021/05/13 14:52:35;;;;;;;;;;;;;;;;;;4288832;33;20023;-96
2021/05/13 14:55:12;;;;;;;;;;;;;;;;;;4289732;33;19996;-96
2021/05/13 14:57:46;;;;;;;;;;;;;;;;;;4279492;33;19949;-96
2021/05/13 15:00:20;;;;;;;;;;;;;;;;;;4285495;33;20008;-96
2021/05/13 15:02:51;;;;;;;;;;;;;;;;;;4278659;33;19975;-96
2021/05/13 15:05:19;;;;;;;;;;;;;;;;;;4289324;33;19937;-96
2021/05/13 15:07:48;;;;;;;;;;;;;;;;;;4290753;33;20004;-95
2021/05/13 15:10:18;;;;;;;;;;;;;;;;;;4278453;33;20000;-96
2021/05/13 15:12:49;;;;;;;;;;;;;;;;;;4274470;33;19983;-96
2021/05/13 15:15:23;;;;;;;;;;;;;;;;;;4271462;33;20031;-95
2021/05/13 15:17:54;;;;;;;;;;;;;;;;;;4290279;33;19961;-96
2021/05/13 15:20:23;;;;;;;;;;;;;;;;;;4270983;33;19961;-95
2021/05/13 15:22:53;;;;;;;;;;;;;;;;;;4271677;33;19954;-96
2021/05/13 15:25:24;;;;;;;;;;;;;;;;;;4283560;33;19945;-96
2021/05/13 15:28:00;;;;;;;;;;;;;;;;;;4288632;33;19984;-95
2021/05/13 15:30:29;;;;;;;;;;;;;;;;;;4290614;33;19984;-96
2021/05/13 15:33:00;;;;;;;;;;;;;;;;;;4281910;33;19956;-96
2021/05/13 15:35:31;;;;;;;;;;;;;;;;;;4289590;33;19950;-96
2021/05/13 15:38:09;;;;;;;;;;;;;;;;;;4285099;33;20420;-96
2021/05/13 15:40:40;;;;;;;;;;;;;;;;;;4283732;33;20301;-95
2021/05/13 15:43:09;;;;;;;;;;;;;;;;;;4275442;33;19961;-95
2021/05/13 15:45:38;;;;;;;;;;;;;;;;;;4273832;33;19953;-96
2021/05/13 15:48:09;;;;;;;;;;;;;;;;;;4292891;33;20015;-94
2021/05/13 15:50:39;;;;;;;;;;;;;;;;;;4286516;33;19953;-95
2021/05/13 15:53:10;;;;;;;;;;;;;;;;;;4274655;33;19968;-95
2021/05/13 15:55:41;;;;;;;;;;;;;;;;;;4286788;33;19965;-94
2021/05/13 15:58:09;;;;;;;;;;;;;;;;;;4287541;33;19953;-95
2021/05/13 16:00:40;;;;;;;;;;;;;;;;;;4282672;33;19967;-95
2021/05/13 16:03:09;;;;;;;;;;;;;;;;;;4286612;33;20275;-96
2021/05/13 16:05:37;;;;;;;;;;;;;;;;;;4279840;33;20000;-96
2021/05/13 16:08:05;;;;;;;;;;;;;;;;;;4276288;33;19998;-94
2021/05/13 16:13:26;;;;;;;;;;;;;;;;;;4289020;33;20341;-96
2021/05/13 16:16:00;;;;;;;;;;;;;;;;;;4293637;33;19933;-96
2021/05/13 16:18:42;;;;;;;;;;;;;;;;;;4302715;33;19956;-96
2021/05/13 16:21:53;;;;;;;;;;;;;;;;;;4286897;33;19989;-95
2021/05/13 16:24:22;;;;;;;;;;;;;;;;;;4278265;33;19960;-96
2021/05/13 16:26:50;;;;;;;;;;;;;;;;;;4273567;33;20036;-95
2021/05/13 16:29:21;;;;;;;;;;;;;;;;;;4289461;33;19946;-96
2021/05/13 16:31:52;;;;;;;;;;;;;;;;;;4276202;33;19950;-96
2021/05/13 16:34:23;;;;;;;;;;;;;;;;;;4283332;33;19971;-95
2021/05/13 16:36:53;;;;;;;;;;;;;;;;;;4266029;33;19953;-95
2021/05/13 16:39:22;;;;;;;;;;;;;;;;;;4287546;33;20402;-95
2021/05/13 16:41:51;;;;;;;;;;;;;;;;;;4290936;33;19940;-95
2021/05/13 16:44:19;;;;;;;;;;;;;;;;;;4274754;33;19981;-96
2021/05/13 16:46:50;;;;;;;;;;;;;;;;;;4281842;33;19966;-96
2021/05/13 16:49:21;;;;;;;;;;;;;;;;;;4289720;33;19949;-96
2021/05/13 16:51:55;;;;;;;;;;;;;;;;;;4286983;33;20096;-95
2021/05/13 16:54:26;;;;;;;;;;;;;;;;;;4280756;33;19975;-95
2021/05/13 16:56:55;;;;;;;;;;;;;;;;;;4283601;33;20012;-96
2021/05/13 16:59:26;;;;;;;;;;;;;;;;;;4278455;33;19957;-96
2021/05/13 17:01:57;;;;;;;;;;;;;;;;;;4277172;33;20061;-96
2021/05/13 17:04:55;;;;;;;;;;;;;;;;;;4278832;33;19965;-96
2021/05/13 17:07:25;;;;;;;;;;;;;;;;;;4289944;33;20018;-95
2021/05/13 17:09:57;;;;;;;;;;;;;;;;;;4274982;33;19949;-96
2021/05/13 17:12:25;;;;;;;;;;;;;;;;;;4294490;33;19953;-95
2021/05/13 17:14:54;;;;;;;;;;;;;;;;;;4274871;33;19957;-96
2021/05/13 17:17:26;;;;;;;;;;;;;;;;;;4274147;33;19958;-95
2021/05/13 17:19:56;;;;;;;;;;;;;;;;;;4274102;33;20367;-96
2021/05/13 17:22:27;;;;;;;;;;;;;;;;;;4281145;33;20021;-95
2021/05/13 17:24:59;;;;;;;;;;;;;;;;;;4303722;33;19950;-95
2021/05/13 17:27:29;;;;;;;;;;;;;;;;;;4277552;33;19952;-96
2021/05/13 17:30:02;;;;;;;;;;;;;;;;;;4271149;33;20056;-95
2021/05/13 17:32:31;;;;;;;;;;;;;;;;;;4270686;33;19968;-95
2021/05/13 17:35:05;;;;;;;;;;;;;;;;;;4288252;33;19980;-95
2021/05/13 17:37:36;;;;;;;;;;;;;;;;;;4270927;33;19968;-96
2021/05/13 17:40:04;;;;;;;;;;;;;;;;;;4273428;33;19965;-95
2021/05/13 17:42:33;;;;;;;;;;;;;;;;;;4292537;33;20005;-95
2021/05/13 17:45:03;;;;;;;;;;;;;;;;;;4270119;33;19964;-95
2021/05/13 17:47:35;;;;;;;;;;;;;;;;;;4280389;33;19968;-94
2021/05/13 17:50:04;;;;;;;;;;;;;;;;;;4284375;33;19977;-96
2021/05/13 17:52:33;;;;;;;;;;;;;;;;;;4278527;33;19977;-96
2021/05/13 17:55:04;;;;;;;;;;;;;;;;;;4278874;33;19969;-96
2021/05/13 17:57:38;;;;;;;;;;;;;;;;;;4276510;33;19969;-94
2021/05/13 18:00:12;;;;;;;;;;;;;;;;;;4271254;33;19984;-96
2021/05/13 18:02:50;;;;;;;;;;;;;;;;;;4296230;33;20530;-94
2021/05/13 18:05:24;;;;;;;;;;;;;;;;;;4272176;33;19961;-94
2021/05/13 18:08:02;;;;;;;;;;;;;;;;;;4268804;33;20000;-95
2021/05/13 18:10:30;;;;;;;;;;;;;;;;;;4265805;33;20011;-95
2021/05/13 18:13:01;;;;;;;;;;;;;;;;;;4273239;33;19961;-94